Terminal Aerodrome Forecast
Issued by NWS Charleston, WV

Current Version | Previous Version | Text Only | Print | Product List | Glossary Off
Versions: 1 2 3 4 5 6 7 8 9 10 11 12 13 14 15 16 17 18 19 20 21

000
FTUS41 KRLX 231100
TAFHTS
TAF
KHTS 231124Z 2312/2412 31007KT P6SM SKC
     FM231600 32008G18KT P6SM SKC
     FM240100 00000KT P6SM SKC
     FM241000 00000KT P6SM BKN090=

USA.gov is the U.S. government's official web portal to all federal, state and local government web resources and services.